Kezdőlap
METAR-TAF:

METAR-TAF

Repülőterek :

Lawrence Municipal Airport

Lawrence, Kansas, Amerikai Egyesült Államok

földrajzi szélesség: 39-00-30N, földrajzi hosszúság: 095-12-42W, magasság: 253 m

Jelenlegi meteorológiai megfigyelések

A jelentés 33 perccel ezelõtt készült, 09:06 UTC
Szélcsend
Hőmérséklet 9°C
Páratartalom 93%
Légköri nyomás 1002 hPa
Látótávolság: 2.4 km
Borult 400 lábon
Párásság

METAR: KLWC 090906Z AUTO 00000KT 1 1/2SM BR OVC004 09/08 A2958 RMK AO2 T00890078

Idő: 03:39 (09:39 UTC)


TAF: hiányzik

Meteorológiai megfigyelések és előrejelzések több, mint 4000 repülőtéren (METAR és TAF jelentéseket).

A térképen piros és sárga pontok jelzik az elérhető meteorológiai állomásokat.

Mozgassa az egeret a pont fölött, hogy megjelenjen az állomás neve.

Azután kattintson az időjárási megfigyelések és előrejelzések megtekintéséhez.

A térkép megváltoztatása: kattintson a fekete keresztel jelölt zöld gombra ráközelítéshez, a vonallal jelölt zöld gombra távolításhoz, vagy a zöld nyilakra a szomszédos térképek eléréséhez.


METAR-TAF: